Time;durP1;ratioP1;P1;durP2;ratioP2;P2;SDS_P1;SDS_P2;PMS_P1;PMS_P2;Temp;Humidity;BMP_temperature;BMP_pressure;BME280_temperature;BME280_humidity;BME280_pressure;Samples;Min_cycle;Max_cycle;Signal;HPM_P1;HPM_P2
2021/08/30 00:01:48;;;;;;;11.93;10.77;;;;;;;15.05;100.00;100647.00;5010353;28;20191;-74
2021/08/30 00:04:14;;;;;;;13.53;12.17;;;;;;;15.03;100.00;100637.47;5011096;28;20183;-74
2021/08/30 00:06:41;;;;;;;13.27;12.07;;;;;;;15.02;100.00;100641.34;5011580;28;20263;-74
2021/08/30 00:09:07;;;;;;;10.90;9.80;;;;;;;15.07;100.00;100643.91;5011419;28;20207;-74
2021/08/30 00:11:32;;;;;;;12.00;10.83;;;;;;;15.06;100.00;100640.38;5011501;28;20177;-74
2021/08/30 00:13:58;;;;;;;16.17;11.43;;;;;;;15.06;100.00;100637.63;5011531;28;20280;-74
2021/08/30 00:16:23;;;;;;;11.83;10.57;;;;;;;15.01;100.00;100642.50;5010006;28;20268;-74
2021/08/30 00:18:48;;;;;;;16.53;11.97;;;;;;;15.01;100.00;100643.31;5011205;28;20279;-74
2021/08/30 00:21:13;;;;;;;13.40;12.20;;;;;;;15.02;100.00;100646.84;5011112;28;20624;-74
2021/08/30 00:23:39;;;;;;;20.23;10.77;;;;;;;15.05;100.00;100649.75;5011391;28;20184;-74
2021/08/30 00:26:04;;;;;;;14.60;12.93;;;;;;;15.04;100.00;100644.56;5011221;28;20640;-74
2021/08/30 00:28:32;;;;;;;12.23;11.13;;;;;;;15.04;100.00;100644.56;5011055;28;20227;-74
2021/08/30 00:30:57;;;;;;;13.23;11.77;;;;;;;15.03;100.00;100648.47;5011089;28;20579;-74
2021/08/30 00:33:22;;;;;;;11.17;10.03;;;;;;;15.04;100.00;100648.13;5011155;28;20176;-74
2021/08/30 00:35:48;;;;;;;12.80;10.37;;;;;;;15.03;100.00;100643.75;5011026;28;20607;-75
2021/08/30 00:38:13;;;;;;;13.53;12.27;;;;;;;15.02;100.00;100641.34;5011322;28;20695;-74
2021/08/30 00:40:39;;;;;;;10.33;9.37;;;;;;;15.03;100.00;100634.72;5011062;28;20176;-75
2021/08/30 00:43:05;;;;;;;12.73;11.53;;;;;;;15.03;100.00;100648.47;5011107;28;20177;-75
2021/08/30 00:45:31;;;;;;;12.17;10.97;;;;;;;15.01;100.00;100639.75;5009627;28;20601;-74
2021/08/30 00:47:57;;;;;;;14.37;10.33;;;;;;;15.02;100.00;100646.84;5010955;28;20196;-74
2021/08/30 00:50:23;;;;;;;14.20;11.17;;;;;;;15.02;100.00;100652.34;5011023;28;20176;-74
2021/08/30 00:52:51;;;;;;;11.80;10.70;;;;;;;15.01;100.00;100653.50;5013443;28;20172;-73
2021/08/30 00:55:17;;;;;;;12.60;11.37;;;;;;;15.00;100.00;100647.19;5014879;28;20168;-74
2021/08/30 00:57:42;;;;;;;14.03;10.73;;;;;;;15.01;100.00;100659.81;5015032;28;20179;-74
2021/08/30 01:00:09;;;;;;;12.63;11.47;;;;;;;14.99;100.00;100658.53;5014836;28;20169;-74
2021/08/30 01:02:36;;;;;;;11.10;10.03;;;;;;;15.00;100.00;100658.19;5015125;28;20713;-74
2021/08/30 01:05:03;;;;;;;15.20;13.13;;;;;;;15.01;100.00;100668.06;5013131;28;20176;-74
2021/08/30 01:07:28;;;;;;;14.93;11.63;;;;;;;15.03;100.00;100668.53;5013418;28;20177;-74
2021/08/30 01:10:05;;;;;;;12.70;11.50;;;;;;;15.02;100.00;100661.41;5014623;28;20258;-74
2021/08/30 01:12:51;;;;;;;13.17;11.93;;;;;;;15.03;100.00;100670.47;5014782;28;20234;-74
2021/08/30 01:15:46;;;;;;;12.30;11.10;;;;;;;15.08;100.00;100675.81;5014280;28;20176;-75
2021/08/30 01:18:18;;;;;;;14.23;10.70;;;;;;;15.05;100.00;100676.47;5013533;28;20231;-75
2021/08/30 01:20:49;;;;;;;11.57;10.57;;;;;;;15.05;100.00;100676.47;5013953;28;20183;-74
2021/08/30 01:23:16;;;;;;;13.10;11.80;;;;;;;15.03;100.00;100675.97;5013996;28;20181;-74
2021/08/30 01:25:42;;;;;;;12.50;11.13;;;;;;;15.03;100.00;100676.78;5013615;28;20180;-74
2021/08/30 01:28:08;;;;;;;12.53;11.43;;;;;;;15.08;100.00;100673.06;5012480;28;20215;-74
2021/08/30 01:30:37;;;;;;;13.23;10.50;;;;;;;15.06;100.00;100670.63;5013817;28;20535;-74
2021/08/30 01:33:03;;;;;;;13.07;11.67;;;;;;;15.04;100.00;100674.84;5013803;28;20276;-74
2021/08/30 01:35:31;;;;;;;15.30;11.27;;;;;;;15.05;100.00;100681.97;5012228;28;20189;-75
2021/08/30 01:38:01;;;;;;;15.40;10.80;;;;;;;15.05;100.00;100670.97;5013758;28;20180;-74
2021/08/30 01:40:28;;;;;;;11.63;10.57;;;;;;;15.03;100.00;100668.53;5013490;28;20173;-74
2021/08/30 01:42:55;;;;;;;11.93;10.90;;;;;;;15.04;100.00;100663.84;5014089;28;20247;-74
2021/08/30 01:45:26;;;;;;;13.10;11.67;;;;;;;15.03;100.00;100662.22;5013347;28;20212;-74
2021/08/30 01:47:56;;;;;;;12.43;11.23;;;;;;;15.03;100.00;100656.72;5013451;28;20208;-74
2021/08/30 01:50:22;;;;;;;13.30;12.07;;;;;;;14.99;100.00;100658.53;5013857;28;20187;-75
2021/08/30 01:52:51;;;;;;;11.73;10.53;;;;;;;15.01;100.00;100656.25;5010077;28;20610;-74
2021/08/30 02:03:15;;;;;;;13.80;10.57;;;;;;;14.98;100.00;100673.44;5013552;28;20178;-75
2021/08/30 02:05:48;;;;;;;11.37;10.27;;;;;;;14.98;100.00;100668.75;5013587;28;20172;-74
2021/08/30 02:08:17;;;;;;;10.87;9.87;;;;;;;14.94;100.00;100662.31;5013562;28;20207;-75
2021/08/30 02:10:47;;;;;;;11.27;10.17;;;;;;;14.95;100.00;100674.94;5013581;28;20616;-75
2021/08/30 02:13:14;;;;;;;13.93;12.53;;;;;;;14.93;100.00;100663.44;5013569;28;20184;-74
2021/08/30 02:15:40;;;;;;;11.73;10.77;;;;;;;14.95;100.00;100668.63;5013396;28;20266;-75
2021/08/30 02:18:19;;;;;;;13.87;11.03;;;;;;;14.97;100.00;100671.84;5012268;28;20335;-74
2021/08/30 02:20:52;;;;;;;18.33;11.43;;;;;;;14.95;100.00;100669.41;5013497;28;20171;-75
2021/08/30 02:23:22;;;;;;;13.23;11.93;;;;;;;14.94;100.00;100670.56;5013349;28;20168;-74
2021/08/30 02:25:50;;;;;;;13.47;12.17;;;;;;;14.94;100.00;100678.00;5013289;28;20180;-74
2021/08/30 02:28:19;;;;;;;15.70;11.17;;;;;;;14.93;100.00;100671.72;5013191;28;20680;-74
2021/08/30 02:30:45;;;;;;;13.83;12.53;;;;;;;14.92;100.00;100680.28;5013186;28;20252;-75
2021/08/30 02:33:12;;;;;;;14.93;11.43;;;;;;;14.91;100.00;100662.19;5013400;28;20319;-74
2021/08/30 02:35:41;;;;;;;13.33;12.03;;;;;;;14.89;100.00;100676.25;5011760;28;20406;-74
2021/08/30 02:38:09;;;;;;;14.10;12.33;;;;;;;14.90;100.00;100669.63;5013143;28;20181;-74
2021/08/30 02:40:36;;;;;;;13.50;12.30;;;;;;;14.93;100.00;100671.72;5013117;28;20177;-75
2021/08/30 02:43:04;;;;;;;13.97;12.57;;;;;;;14.90;100.00;100675.13;5012583;28;20545;-74
2021/08/30 02:45:30;;;;;;;13.53;12.17;;;;;;;14.92;100.00;100670.09;5012080;28;20181;-74
2021/08/30 02:48:02;;;;;;;12.40;11.20;;;;;;;14.92;100.00;100669.28;5012446;28;20172;-74
2021/08/30 02:50:29;;;;;;;15.33;12.57;;;;;;;14.94;100.00;100670.56;5012724;28;20185;-75
2021/08/30 02:52:58;;;;;;;17.63;12.40;;;;;;;14.94;100.00;100669.75;5012292;28;20176;-75
2021/08/30 02:55:24;;;;;;;13.70;12.03;;;;;;;14.93;100.00;100671.72;5012010;28;20173;-74
2021/08/30 02:57:49;;;;;;;13.40;11.83;;;;;;;14.94;100.00;100667.81;5012269;28;20242;-75
2021/08/30 03:00:16;;;;;;;13.23;12.00;;;;;;;14.93;100.00;100659.91;5010840;28;20170;-75
2021/08/30 03:02:42;;;;;;;12.87;11.57;;;;;;;14.92;100.00;100658.28;5012186;28;20173;-74
2021/08/30 03:05:09;;;;;;;12.77;11.57;;;;;;;14.93;100.00;100659.91;5011318;28;20172;-75
2021/08/30 03:07:35;;;;;;;13.93;12.57;;;;;;;14.91;100.00;100664.94;5011996;28;20340;-74
2021/08/30 03:10:00;;;;;;;12.73;11.43;;;;;;;14.91;100.00;100660.22;5011946;28;20208;-75
2021/08/30 03:12:29;;;;;;;15.47;11.97;;;;;;;14.89;100.00;100655.03;5011941;28;20231;-74
2021/08/30 03:14:58;;;;;;;12.43;11.23;;;;;;;14.89;100.00;100655.03;5011032;28;20643;-75
2021/08/30 03:17:23;;;;;;;12.60;11.50;;;;;;;14.90;100.00;100658.63;5011609;28;20275;-74
2021/08/30 03:19:52;;;;;;;13.30;11.97;;;;;;;14.87;100.00;100654.56;5011957;28;20306;-74
2021/08/30 03:22:18;;;;;;;12.87;11.57;;;;;;;14.86;100.00;100647.47;5011794;28;20542;-74
2021/08/30 03:24:46;;;;;;;15.50;12.23;;;;;;;14.86;100.00;100650.22;5011396;28;20212;-75
2021/08/30 03:27:14;;;;;;;12.07;10.97;;;;;;;14.89;100.00;100652.28;5011709;28;20276;-75
2021/08/30 03:29:40;;;;;;;13.57;12.17;;;;;;;14.85;100.00;100656.84;5011453;28;20706;-74
2021/08/30 03:32:08;;;;;;;12.87;11.57;;;;;;;14.84;100.00;100649.75;5010180;28;20177;-74
2021/08/30 03:34:35;;;;;;;14.07;12.63;;;;;;;14.84;100.00;100647.00;5011392;28;20195;-75
2021/08/30 03:37:02;;;;;;;12.10;10.83;;;;;;;14.85;100.00;100653.31;5011462;28;20537;-75
2021/08/30 03:39:28;;;;;;;13.10;11.90;;;;;;;14.82;100.00;100652.03;5011261;28;20216;-75
2021/08/30 03:41:54;;;;;;;12.17;10.97;;;;;;;14.84;100.00;100657.19;5010117;28;20579;-75
2021/08/30 03:44:20;;;;;;;12.43;11.33;;;;;;;14.85;100.00;100656.06;5011152;28;20181;-75
2021/08/30 03:46:45;;;;;;;12.90;11.63;;;;;;;14.84;100.00;100660.75;5011277;28;20178;-75
2021/08/30 03:49:11;;;;;;;13.50;12.07;;;;;;;14.81;100.00;100658.69;5011128;28;20215;-74
2021/08/30 03:51:39;;;;;;;15.10;13.70;;;;;;;14.82;100.00;100659.47;5011282;28;20652;-74
2021/08/30 03:54:05;;;;;;;13.37;12.17;;;;;;;14.83;100.00;100813.19;5010939;28;20223;-75
2021/08/30 03:56:30;;;;;;;13.63;12.43;;;;;;;14.83;100.00;100672.09;5011182;28;20196;-74
2021/08/30 03:58:56;;;;;;;13.07;11.77;;;;;;;14.92;100.00;100655.53;5011126;28;20629;-75
2021/08/30 04:01:25;;;;;;;13.37;12.00;;;;;;;14.86;100.00;100661.22;5011060;28;20188;-74
2021/08/30 04:03:53;;;;;;;14.30;12.57;;;;;;;14.83;100.00;100658.34;5010333;28;20283;-74
2021/08/30 04:06:20;;;;;;;13.80;12.40;;;;;;;14.86;100.00;100674.97;5011079;28;20262;-75
2021/08/30 04:08:46;;;;;;;13.67;12.47;;;;;;;14.86;100.00;100665.91;5010873;28;20576;-75
2021/08/30 04:11:11;;;;;;;13.17;12.07;;;;;;;14.85;100.00;100673.38;5010802;28;20263;-75
2021/08/30 04:13:39;;;;;;;13.67;12.43;;;;;;;14.86;100.00;100676.91;5010678;28;20288;-75
2021/08/30 04:16:05;;;;;;;12.73;11.63;;;;;;;14.83;100.00;100670.16;5010877;28;20219;-75
2021/08/30 04:18:30;;;;;;;13.77;12.33;;;;;;;14.87;100.00;100676.59;5009462;28;20692;-75
2021/08/30 04:20:56;;;;;;;12.90;11.60;;;;;;;14.86;100.00;100671.41;5010822;28;20200;-75
2021/08/30 04:23:21;;;;;;;13.50;12.20;;;;;;;14.86;100.00;100674.97;5011169;28;20183;-74
2021/08/30 04:25:46;;;;;;;13.43;12.13;;;;;;;14.86;100.00;100683.22;5010013;28;20328;-74
2021/08/30 04:28:12;;;;;;;13.83;12.63;;;;;;;14.83;100.00;100677.59;5010082;28;20200;-74
2021/08/30 04:30:38;;;;;;;13.43;12.03;;;;;;;14.85;100.00;100684.38;5010687;28;20246;-75
2021/08/30 04:33:09;;;;;;;12.77;11.57;;;;;;;14.81;100.00;100683.44;5010702;28;20223;-75
2021/08/30 04:35:34;;;;;;;11.63;10.63;;;;;;;14.83;100.00;100683.09;5010352;28;20169;-75
2021/08/30 04:37:59;;;;;;;12.63;11.50;;;;;;;14.81;100.00;100686.19;5010634;28;20260;-75
2021/08/30 04:40:25;;;;;;;11.83;10.83;;;;;;;14.82;100.00;100687.78;5009236;28;20187;-75
2021/08/30 04:42:50;;;;;;;11.53;10.33;;;;;;;14.85;100.00;100687.13;5010690;28;20173;-75
2021/08/30 04:45:16;;;;;;;12.77;11.47;;;;;;;14.84;100.00;100687.44;5010624;28;20176;-74
2021/08/30 04:47:42;;;;;;;11.97;10.77;;;;;;;14.85;100.00;100680.81;5010673;28;20180;-75
2021/08/30 04:50:08;;;;;;;12.13;11.03;;;;;;;14.83;100.00;100724.34;5010390;28;20242;-75
2021/08/30 04:52:33;;;;;;;13.60;11.93;;;;;;;14.83;100.00;100733.41;5010475;28;20245;-75
2021/08/30 04:54:59;;;;;;;15.03;11.67;;;;;;;14.85;100.00;100730.31;5010065;28;20188;-75
2021/08/30 04:57:24;;;;;;;13.67;11.93;;;;;;;14.85;100.00;100722.06;5010429;28;20907;-74
2021/08/30 04:59:49;;;;;;;14.17;12.70;;;;;;;14.84;100.00;100734.22;5010331;28;20212;-74
2021/08/30 05:02:15;;;;;;;14.07;12.67;;;;;;;14.84;100.00;100747.97;5010423;28;20237;-75
2021/08/30 05:04:40;;;;;;;19.60;12.67;;;;;;;14.83;100.00;100758.19;5009660;28;20655;-75
2021/08/30 05:07:05;;;;;;;14.50;13.17;;;;;;;14.81;100.00;100743.94;5010319;28;20180;-74
2021/08/30 05:09:31;;;;;;;14.47;12.90;;;;;;;14.78;100.00;100763.88;5010193;28;20774;-75
2021/08/30 05:11:57;;;;;;;13.77;12.43;;;;;;;14.83;100.00;100769.19;5010273;28;20181;-74
2021/08/30 05:14:22;;;;;;;14.73;13.20;;;;;;;14.82;100.00;100756.56;5010228;28;20173;-74
2021/08/30 05:16:48;;;;;;;13.20;12.07;;;;;;;14.98;100.00;100764.25;5010303;28;20185;-74
2021/08/30 05:19:14;;;;;;;15.10;13.43;;;;;;;14.85;100.00;100774.34;5010223;28;20271;-74
2021/08/30 05:21:39;;;;;;;16.30;13.43;;;;;;;14.88;100.00;100773.66;5010018;28;20181;-74
2021/08/30 05:24:08;;;;;;;12.20;11.10;;;;;;;14.87;100.00;100794.88;5009959;28;20176;-75
2021/08/30 05:26:34;;;;;;;14.17;12.67;;;;;;;14.83;100.00;100804.94;5010174;28;20172;-75
2021/08/30 05:29:00;;;;;;;14.30;13.07;;;;;;;14.89;100.00;100789.03;5010130;28;20219;-75
2021/08/30 05:31:25;;;;;;;14.33;12.77;;;;;;;14.87;100.00;100816.88;5010137;28;20169;-74
2021/08/30 05:33:51;;;;;;;14.90;13.60;;;;;;;14.85;100.00;100819.16;5010294;28;20227;-75
2021/08/30 05:36:16;;;;;;;19.43;14.10;;;;;;;14.87;100.00;100808.63;5010027;28;20227;-75
2021/08/30 05:38:42;;;;;;;13.77;12.37;;;;;;;14.95;100.00;100825.44;5012172;28;20179;-75
2021/08/30 05:41:07;;;;;;;14.47;12.97;;;;;;;14.87;100.00;100829.84;5013861;28;20195;-75
2021/08/30 05:43:32;;;;;;;16.70;14.77;;;;;;;14.86;100.00;100831.78;5013695;28;20195;-74
2021/08/30 05:45:58;;;;;;;14.97;12.83;;;;;;;14.98;100.00;100830.28;5012115;28;20716;-75
2021/08/30 05:48:24;;;;;;;15.10;12.77;;;;;;;15.08;100.00;100832.66;5013492;28;20266;-75
2021/08/30 05:50:49;;;;;;;16.50;12.60;;;;;;;15.03;100.00;100852.09;5013610;28;20231;-74
2021/08/30 05:53:14;;;;;;;14.40;13.00;;;;;;;15.03;100.00;100866.66;5013883;28;20283;-74
2021/08/30 05:55:40;;;;;;;14.80;12.23;;;;;;;15.01;100.00;100854.38;5013451;28;20208;-74
2021/08/30 05:58:05;;;;;;;13.97;12.43;;;;;;;14.96;100.00;100851.81;5013460;28;20172;-74
2021/08/30 06:00:30;;;;;;;14.60;13.20;;;;;;;14.93;100.00;100847.78;5014009;28;20241;-75
2021/08/30 06:02:55;;;;;;;14.53;13.13;;;;;;;14.93;100.00;100877.25;5012901;28;20242;-74
2021/08/30 06:05:21;;;;;;;19.43;14.03;;;;;;;14.91;100.00;100871.28;5013460;28;20650;-74
2021/08/30 06:07:46;;;;;;;13.73;12.53;;;;;;;14.97;100.00;100876.25;5013595;28;20177;-74
2021/08/30 06:10:12;;;;;;;13.10;11.83;;;;;;;14.97;100.00;100880.94;5013182;28;20616;-73
2021/08/30 06:12:38;;;;;;;13.60;12.40;;;;;;;14.97;100.00;100884.50;5013528;28;20522;-74
2021/08/30 06:15:05;;;;;;;15.40;12.40;;;;;;;14.97;100.00;100869.94;5012888;28;20239;-73
2021/08/30 06:17:30;;;;;;;12.43;11.33;;;;;;;14.96;100.00;100882.09;5012740;28;20574;-72
2021/08/30 06:19:55;;;;;;;13.53;12.27;;;;;;;14.91;100.00;100839.06;5007302;28;20197;-73
2021/08/30 06:22:21;;;;;;;13.30;11.77;;;;;;;14.98;100.00;100849.53;5013179;28;20185;-72
2021/08/30 06:24:47;;;;;;;13.00;11.80;;;;;;;14.95;100.00;100847.47;5013068;28;20177;-72
2021/08/30 06:27:14;;;;;;;13.30;11.70;;;;;;;14.95;100.00;100841.94;5013333;28;20514;-72
2021/08/30 06:29:40;;;;;;;12.70;11.50;;;;;;;14.99;100.00;100835.44;5011846;28;20216;-72
2021/08/30 06:32:06;;;;;;;13.00;11.73;;;;;;;15.00;100.00;100836.25;5013162;28;20176;-72
2021/08/30 06:34:31;;;;;;;12.20;11.07;;;;;;;14.97;100.00;100836.91;5013315;28;20187;-72
2021/08/30 06:36:57;;;;;;;13.93;12.20;;;;;;;15.01;100.00;100840.63;5013067;28;20177;-73
2021/08/30 06:39:22;;;;;;;11.83;10.77;;;;;;;15.02;100.00;100839.47;5013029;28;20181;-72
2021/08/30 06:41:47;;;;;;;11.93;10.53;;;;;;;15.02;100.00;100829.28;5013048;28;20173;-73
2021/08/30 06:44:13;;;;;;;12.47;11.27;;;;;;;15.03;100.00;100839.13;5012827;28;20266;-72
2021/08/30 06:46:38;;;;;;;12.70;11.13;;;;;;;15.06;100.00;100840.44;5012827;28;20185;-72
2021/08/30 06:49:03;;;;;;;12.03;10.93;;;;;;;15.07;100.00;100833.81;5012202;28;20357;-72
2021/08/30 06:51:29;;;;;;;16.43;10.17;;;;;;;15.10;100.00;100833.13;5012505;28;20187;-72
2021/08/30 06:53:54;;;;;;;10.83;9.83;;;;;;;15.11;100.00;100837.50;5012615;28;20628;-72
2021/08/30 06:56:19;;;;;;;11.63;10.43;;;;;;;15.14;100.00;100828.56;5012582;28;20267;-72
2021/08/30 06:58:45;;;;;;;11.53;10.40;;;;;;;15.17;100.00;100828.69;5012729;28;20177;-73
2021/08/30 07:01:10;;;;;;;10.60;9.73;;;;;;;15.21;100.00;100839.06;5012620;28;21280;-72
2021/08/30 07:03:36;;;;;;;11.43;10.13;;;;;;;15.16;100.00;100831.78;5006989;28;20189;-72
2021/08/30 07:06:02;;;;;;;10.40;9.50;;;;;;;15.17;100.00;100830.66;5012488;28;20554;-72
2021/08/30 07:08:27;;;;;;;16.20;10.40;;;;;;;15.18;100.00;100830.31;5012347;28;20200;-72
2021/08/30 07:10:52;;;;;;;10.93;9.47;;;;;;;15.21;100.00;100842.63;5012559;28;20180;-72
2021/08/30 07:13:18;;;;;;;10.83;9.83;;;;;;;15.21;100.00;100831.63;5010521;28;20234;-72
2021/08/30 07:15:43;;;;;;;10.63;9.63;;;;;;;15.21;100.00;100834.38;5010382;28;20195;-72
2021/08/30 07:18:08;;;;;;;11.17;9.47;;;;;;;15.24;100.00;100833.69;5001192;28;20192;-72
2021/08/30 07:20:34;;;;;;;10.30;9.27;;;;;;;15.26;100.00;100844.38;5012334;28;20176;-73
2021/08/30 07:23:00;;;;;;;9.93;9.07;;;;;;;15.27;100.00;100848.75;5012322;28;20184;-73
2021/08/30 07:25:25;;;;;;;10.97;9.97;;;;;;;15.30;100.00;100837.06;5012030;28;20624;-72
2021/08/30 07:27:51;;;;;;;11.17;10.17;;;;;;;15.30;100.00;100848.88;5003450;28;20177;-72
2021/08/30 07:30:16;;;;;;;11.77;8.93;;;;;;;15.32;100.00;100840.28;5001485;28;20696;-72
2021/08/30 07:32:41;;;;;;;9.50;8.70;;;;;;;15.36;100.00;100838.50;5006751;28;20236;-72
2021/08/30 07:35:07;;;;;;;11.67;8.83;;;;;;;15.38;100.00;100837.00;5021430;28;20176;-72
2021/08/30 07:37:34;;;;;;;15.03;9.00;;;;;;;15.42;100.00;100843.47;5030413;28;20183;-72
2021/08/30 07:40:00;;;;;;;11.40;9.00;;;;;;;15.48;100.00;100844.88;5031674;28;20249;-72
2021/08/30 07:42:25;;;;;;;9.67;8.73;;;;;;;15.47;100.00;100837.75;5031770;28;20528;-72
2021/08/30 07:44:50;;;;;;;9.50;8.70;;;;;;;15.55;100.00;100835.28;5031749;28;20207;-71
2021/08/30 07:47:16;;;;;;;9.60;8.80;;;;;;;15.58;100.00;100837.34;5031562;28;20259;-72
2021/08/30 07:49:41;;;;;;;10.30;9.40;;;;;;;15.58;100.00;100840.91;5031465;28;20254;-72
2021/08/30 07:52:06;;;;;;;9.30;8.40;;;;;;;15.60;100.00;100841.41;5031118;28;20615;-72
2021/08/30 07:54:32;;;;;;;12.87;9.40;;;;;;;15.63;100.00;100843.53;5014405;28;20231;-72
2021/08/30 07:56:57;;;;;;;8.97;8.20;;;;;;;15.66;100.00;100848.34;5009695;28;20184;-72
2021/08/30 07:59:22;;;;;;;9.57;8.87;;;;;;;15.62;100.00;100846.59;5011635;28;20192;-72
2021/08/30 08:01:48;;;;;;;9.57;8.77;;;;;;;15.63;100.00;100856.50;5003616;28;20195;-72
2021/08/30 08:04:13;;;;;;;9.13;8.40;;;;;;;15.68;100.00;100861.78;5000576;28;20179;-72
2021/08/30 08:06:38;;;;;;;8.47;7.77;;;;;;;15.58;100.00;100862.94;5000399;28;20177;-72
2021/08/30 08:09:05;;;;;;;10.30;9.03;;;;;;;15.61;100.00;100864.25;5001277;28;20567;-72
2021/08/30 08:11:31;;;;;;;8.37;7.67;;;;;;;15.60;100.00;100865.41;5001938;28;20174;-72
2021/08/30 08:13:57;;;;;;;8.77;7.97;;;;;;;15.57;100.00;100866.03;5001511;28;20238;-72
2021/08/30 08:16:22;;;;;;;9.23;8.43;;;;;;;15.63;100.00;100864.75;5001969;28;20617;-72
2021/08/30 08:18:48;;;;;;;10.03;9.00;;;;;;;15.61;100.00;100867.00;5001413;28;20640;-72
2021/08/30 08:21:13;;;;;;;9.83;8.93;;;;;;;15.69;100.00;100871.66;5000143;28;20625;-72
2021/08/30 08:23:39;;;;;;;9.33;8.43;;;;;;;15.73;100.00;100867.09;5001908;28;20169;-72
2021/08/30 08:26:04;;;;;;;8.63;7.93;;;;;;;15.83;100.00;100865.88;4999743;28;20198;-72
2021/08/30 08:28:30;;;;;;;9.07;8.37;;;;;;;16.01;100.00;100870.09;4991621;28;20209;-75
2021/08/30 08:30:55;;;;;;;10.00;9.00;;;;;;;16.11;100.00;100877.97;4991558;28;20173;-72
2021/08/30 08:33:21;;;;;;;9.73;8.73;;;;;;;16.11;100.00;100874.41;4990310;28;20181;-71
2021/08/30 08:35:46;;;;;;;8.50;7.70;;;;;;;16.10;100.00;100870.84;4991419;28;20181;-71
2021/08/30 08:38:12;;;;;;;8.17;7.37;;;;;;;16.06;100.00;100867.16;4991526;28;20176;-71
2021/08/30 08:40:38;;;;;;;7.80;7.07;;;;;;;16.09;100.00;100876.69;4991532;28;20260;-72
2021/08/30 08:43:14;;;;;;;8.40;7.60;;;;;;;16.11;100.00;100866.13;4991583;28;20200;-77
2021/08/30 08:45:42;;;;;;;8.60;7.90;;;;;;;16.14;100.00;100862.69;4991152;28;20176;-79
2021/08/30 08:48:09;;;;;;;6.47;5.90;;;;;;;16.13;100.00;100866.59;4991723;28;20268;-73
2021/08/30 08:50:34;;;;;;;8.07;7.47;;;;;;;16.06;100.00;100853.38;5003135;28;20188;-73
2021/08/30 08:53:04;;;;;;;9.87;8.37;;;;;;;15.96;100.00;100862.84;5005138;28;20180;-73
2021/08/30 08:55:34;;;;;;;10.73;8.30;;;;;;;15.93;100.00;100860.78;5009485;28;20210;-73
2021/08/30 08:58:11;;;;;;;8.63;7.93;;;;;;;15.91;100.00;100857.56;5010347;28;20180;-73
2021/08/30 09:00:40;;;;;;;7.63;7.03;;;;;;;15.93;100.00;100865.50;5008062;28;20546;-73
2021/08/30 09:03:16;;;;;;;9.23;8.43;;;;;;;15.91;100.00;100873.25;5010435;28;20184;-73
2021/08/30 09:05:42;;;;;;;12.33;7.30;;;;;;;15.90;100.00;100861.44;5010073;28;20203;-73
2021/08/30 09:08:24;;;;;;;8.13;7.33;;;;;;;15.96;100.00;100868.38;5010596;28;20513;-73
2021/08/30 09:10:50;;;;;;;6.63;6.13;;;;;;;15.96;100.00;100862.06;5010163;28;20181;-73
2021/08/30 09:13:16;;;;;;;7.10;6.50;;;;;;;16.00;100.00;100869.31;5011848;28;20177;-73
2021/08/30 09:15:41;;;;;;;6.63;6.13;;;;;;;16.12;100.00;100870.50;5013928;28;20176;-73
2021/08/30 09:18:10;;;;;;;6.47;5.87;;;;;;;16.35;100.00;100872.56;5014065;28;20188;-73
2021/08/30 09:20:35;;;;;;;5.57;5.10;;;;;;;16.58;100.00;100866.63;5009159;28;20195;-73
2021/08/30 09:23:14;;;;;;;4.43;4.13;;;;;;;16.51;100.00;100878.22;5014382;28;20192;-72
2021/08/30 09:25:39;;;;;;;4.90;4.50;;;;;;;16.42;100.00;100871.19;5014321;28;20180;-73
2021/08/30 09:28:05;;;;;;;9.10;5.37;;;;;;;16.35;100.00;100875.31;5014217;28;20549;-73
2021/08/30 09:30:30;;;;;;;4.07;3.77;;;;;;;16.31;100.00;100868.84;5014465;28;20219;-73
2021/08/30 09:32:55;;;;;;;8.50;3.30;;;;;;;16.33;100.00;100871.25;5014437;28;20248;-73
2021/08/30 09:35:21;;;;;;;5.10;4.40;;;;;;;16.28;100.00;100880.56;5014117;28;20176;-74
2021/08/30 09:37:47;;;;;;;5.10;4.70;;;;;;;16.30;100.00;100864.47;5013283;28;20173;-73
2021/08/30 09:40:22;;;;;;;4.40;4.03;;;;;;;16.32;100.00;100864.13;5013608;28;20187;-73
2021/08/30 09:42:51;;;;;;;4.60;4.20;;;;;;;16.38;100.00;100871.06;5013671;28;20260;-73
2021/08/30 09:45:20;;;;;;;4.33;4.03;;;;;;;16.46;100.00;101007.25;5011849;28;20189;-73
2021/08/30 09:47:51;;;;;;;4.80;4.40;;;;;;;16.68;100.00;100865.44;5013646;28;20173;-73
2021/08/30 09:50:17;;;;;;;4.13;3.73;;;;;;;16.72;100.00;100860.81;5013894;28;20212;-72
2021/08/30 09:52:42;;;;;;;4.33;3.97;;;;;;;16.88;100.00;100859.00;5013787;28;20541;-72
2021/08/30 09:55:08;;;;;;;4.37;3.97;;;;;;;17.05;100.00;100857.97;5013788;28;20172;-73
2021/08/30 09:57:35;;;;;;;4.20;3.43;;;;;;;16.99;100.00;100857.41;5013412;28;20173;-73
2021/08/30 10:00:03;;;;;;;3.47;3.17;;;;;;;16.91;100.00;100852.78;5013342;28;20180;-72
2021/08/30 10:02:30;;;;;;;4.33;4.03;;;;;;;16.86;100.00;100853.84;5013196;28;20234;-73
2021/08/30 10:04:59;;;;;;;3.90;3.60;;;;;;;16.80;100.00;100854.41;5010557;28;20192;-73
2021/08/30 10:07:27;;;;;;;5.13;3.60;;;;;;;16.80;100.00;100859.94;5013343;28;20189;-73
2021/08/30 10:09:53;;;;;;;3.73;3.43;;;;;;;16.76;100.00;100856.22;5011745;28;20212;-73
2021/08/30 10:12:18;;;;;;;4.37;4.00;;;;;;;16.63;100.00;100858.94;5012478;28;20193;-73
2021/08/30 10:14:44;;;;;;;4.30;3.90;;;;;;;16.52;100.00;100862.50;5010853;28;20185;-73
2021/08/30 10:17:09;;;;;;;5.07;4.57;;;;;;;16.52;100.00;100868.81;5013018;28;20220;-73
2021/08/30 10:19:37;;;;;;;4.77;4.37;;;;;;;16.43;100.00;100865.31;5011240;28;20601;-73
2021/08/30 10:22:16;;;;;;;4.80;4.40;;;;;;;16.30;100.00;100864.47;5012597;28;20186;-73
2021/08/30 10:24:42;;;;;;;4.77;4.47;;;;;;;16.30;100.00;100866.44;5012288;28;20176;-73
2021/08/30 10:27:11;;;;;;;6.70;4.97;;;;;;;16.28;100.00;100863.22;5009767;28;20188;-72
2021/08/30 10:29:39;;;;;;;6.30;5.80;;;;;;;16.25;100.00;100858.38;5012920;28;20859;-73
2021/08/30 10:32:08;;;;;;;5.90;5.40;;;;;;;16.26;100.00;100851.72;5013119;28;20181;-73
2021/08/30 10:34:35;;;;;;;7.00;5.20;;;;;;;16.25;100.00;100859.19;5012879;28;20180;-72
2021/08/30 10:37:03;;;;;;;5.53;4.93;;;;;;;16.27;100.00;100856.09;5013108;28;20176;-72
2021/08/30 10:39:43;;;;;;;5.17;4.47;;;;;;;16.31;100.00;100862.53;5012823;28;20531;-73
2021/08/30 10:42:12;;;;;;;4.67;4.27;;;;;;;16.34;100.00;100864.59;5012955;28;20238;-72
2021/08/30 10:44:50;;;;;;;4.73;4.33;;;;;;;16.39;100.00;100866.34;5012713;28;20641;-73
2021/08/30 10:47:16;;;;;;;5.13;4.73;;;;;;;16.38;100.00;100865.56;5012759;28;20184;-73
2021/08/30 10:49:42;;;;;;;4.63;3.97;;;;;;;16.45;100.00;100874.06;5012684;28;20204;-73
2021/08/30 10:52:11;;;;;;;4.83;4.43;;;;;;;16.53;100.00;100866.84;5012735;28;20180;-73
2021/08/30 10:54:48;;;;;;;5.43;4.93;;;;;;;16.51;100.00;100864.44;5012315;28;20169;-74
2021/08/30 10:57:14;;;;;;;6.03;4.60;;;;;;;16.56;100.00;100866.97;5002429;28;20188;-73
2021/08/30 10:59:43;;;;;;;6.93;5.60;;;;;;;16.55;100.00;100868.13;4992769;28;20189;-73
2021/08/30 11:02:09;;;;;;;6.00;4.57;;;;;;;16.61;100.00;100871.47;4993052;28;20178;-74
2021/08/30 11:04:37;;;;;;;4.60;4.23;;;;;;;16.62;100.00;100868.34;4992734;28;20216;-73
2021/08/30 11:07:04;;;;;;;5.23;4.77;;;;;;;16.57;100.00;100863.06;4991748;28;20177;-73
2021/08/30 11:09:30;;;;;;;4.60;4.20;;;;;;;16.61;100.00;100861.22;4992835;28;20201;-73
2021/08/30 11:12:09;;;;;;;5.13;3.83;;;;;;;16.69;100.00;100865.06;4992710;28;20192;-73
2021/08/30 11:14:37;;;;;;;4.33;4.03;;;;;;;16.74;100.00;100864.84;4992401;28;20267;-73